createdAt,value
2018-12-25T00:00:09.731Z,1.63
2018-12-25T00:01:09.690Z,1.63
2018-12-25T00:02:09.696Z,1.63
2018-12-25T00:03:09.763Z,1.64
2018-12-25T00:04:09.678Z,1.63
2018-12-25T00:05:09.734Z,1.6
2018-12-25T00:06:09.914Z,1.58
2018-12-25T00:07:09.678Z,1.58
2018-12-25T00:08:09.679Z,1.55
2018-12-25T00:09:09.766Z,1.56
2018-12-25T00:10:09.686Z,1.57
2018-12-25T00:11:09.680Z,1.58
2018-12-25T00:12:09.756Z,1.55
2018-12-25T00:13:09.643Z,1.52
2018-12-25T00:14:09.682Z,1.53
2018-12-25T00:15:09.810Z,1.49
2018-12-25T00:16:09.679Z,1.48
2018-12-25T00:17:09.717Z,1.49
2018-12-25T00:18:09.656Z,1.46
2018-12-25T00:19:09.695Z,1.48
2018-12-25T00:20:09.655Z,1.52
2018-12-25T00:21:09.688Z,1.5
2018-12-25T00:22:09.438Z,1.51
2018-12-25T00:23:09.916Z,1.47
2018-12-25T00:24:09.788Z,1.46
2018-12-25T00:25:09.635Z,1.41
2018-12-25T00:26:10.448Z,1.43
2018-12-25T00:27:09.880Z,1.4
2018-12-25T00:28:09.795Z,1.4
2018-12-25T00:29:09.972Z,1.37
2018-12-25T00:30:09.742Z,1.38
2018-12-25T00:31:09.718Z,1.37
2018-12-25T00:32:09.708Z,1.4
2018-12-25T00:33:09.768Z,1.38
2018-12-25T00:34:09.951Z,1.4
2018-12-25T00:35:09.679Z,1.4
2018-12-25T00:36:09.685Z,1.36
2018-12-25T00:37:10.139Z,1.35
2018-12-25T00:38:09.667Z,1.36
2018-12-25T00:39:09.670Z,1.36
2018-12-25T00:40:09.854Z,1.37
2018-12-25T00:41:09.802Z,1.36
2018-12-25T00:42:09.678Z,1.37
2018-12-25T00:43:09.904Z,1.35
2018-12-25T00:44:09.893Z,1.34
2018-12-25T00:45:09.818Z,1.34
2018-12-25T00:46:09.698Z,1.34
2018-12-25T00:47:09.635Z,1.33
2018-12-25T00:48:10.173Z,1.32
2018-12-25T00:49:15.309Z,1.32
2018-12-25T00:50:09.860Z,1.31
2018-12-25T00:51:09.627Z,1.3
2018-12-25T00:52:09.499Z,1.29
2018-12-25T00:53:09.816Z,1.27
2018-12-25T00:54:09.691Z,1.29
2018-12-25T00:55:09.953Z,1.25
2018-12-25T00:56:09.774Z,1.23
2018-12-25T00:57:10.036Z,1.23
2018-12-25T00:58:09.971Z,1.22
2018-12-25T00:59:09.779Z,1.22
2018-12-25T01:00:10.422Z,1.19
2018-12-25T01:01:09.861Z,1.18
2018-12-25T01:02:09.870Z,1.18
2018-12-25T01:03:09.963Z,1.18
2018-12-25T01:04:10.059Z,1.14
2018-12-25T01:05:09.582Z,1.15
2018-12-25T01:06:09.586Z,1.12
2018-12-25T01:07:10.216Z,1.12
2018-12-25T01:08:09.860Z,1.1
2018-12-25T01:09:09.598Z,1.13
2018-12-25T01:10:09.606Z,1.13
2018-12-25T01:11:09.729Z,1.08
2018-12-25T01:12:09.701Z,1.03
2018-12-25T01:13:09.592Z,1
2018-12-25T01:14:10.068Z,0.93
2018-12-25T01:15:10.039Z,0.94
2018-12-25T01:16:09.614Z,0.91
2018-12-25T01:17:09.566Z,0.92
2018-12-25T01:18:09.758Z,0.91
2018-12-25T01:19:09.975Z,0.92
2018-12-25T01:20:09.760Z,0.95
2018-12-25T01:21:09.584Z,0.96
2018-12-25T01:22:09.839Z,0.9
2018-12-25T01:23:10.404Z,0.9
2018-12-25T01:24:09.861Z,0.9
2018-12-25T01:25:09.611Z,0.91
2018-12-25T01:26:09.652Z,0.9
2018-12-25T01:27:09.589Z,0.89
2018-12-25T01:28:09.885Z,0.87
2018-12-25T01:29:09.810Z,0.88
2018-12-25T01:30:09.849Z,0.83
2018-12-25T01:31:09.895Z,0.83
2018-12-25T01:32:09.829Z,0.84
2018-12-25T01:33:09.734Z,0.85
2018-12-25T01:34:10.034Z,0.85
2018-12-25T01:35:10.378Z,0.83
2018-12-25T01:36:09.552Z,0.84
2018-12-25T01:37:09.906Z,0.83
2018-12-25T01:38:09.750Z,0.84
2018-12-25T01:39:09.561Z,0.89
2018-12-25T01:40:09.547Z,0.86
2018-12-25T01:41:09.556Z,0.86
2018-12-25T01:42:09.787Z,0.9
2018-12-25T01:43:09.678Z,0.9
2018-12-25T01:44:09.582Z,0.89
2018-12-25T01:45:09.596Z,0.87
2018-12-25T01:46:09.572Z,0.85
2018-12-25T01:47:09.527Z,0.84
2018-12-25T01:48:09.558Z,0.84
2018-12-25T01:49:09.567Z,0.86
2018-12-25T01:50:09.587Z,0.86
2018-12-25T01:51:09.622Z,0.88
2018-12-25T01:52:09.665Z,0.86
2018-12-25T01:53:09.549Z,0.87
2018-12-25T01:54:09.635Z,0.88
2018-12-25T01:55:09.576Z,0.88
2018-12-25T01:56:09.615Z,0.86
2018-12-25T01:57:09.613Z,0.85
2018-12-25T01:58:09.681Z,0.86
2018-12-25T01:59:09.671Z,0.86
2018-12-25T02:00:09.741Z,0.87
2018-12-25T02:01:09.582Z,0.87
2018-12-25T02:02:09.900Z,0.89
2018-12-25T02:03:09.823Z,0.89
2018-12-25T02:04:09.638Z,0.9
2018-12-25T02:05:09.626Z,0.86
2018-12-25T02:06:09.551Z,0.88
2018-12-25T02:07:09.884Z,0.85
2018-12-25T02:08:09.770Z,0.87
2018-12-25T02:09:09.690Z,0.85
2018-12-25T02:10:09.831Z,0.86
2018-12-25T02:11:09.981Z,0.83
2018-12-25T02:12:09.834Z,0.86
2018-12-25T02:13:09.720Z,0.84
2018-12-25T02:14:09.678Z,0.88
2018-12-25T02:15:09.664Z,0.88
2018-12-25T02:16:09.750Z,0.87
2018-12-25T02:17:09.608Z,0.88
2018-12-25T02:18:09.566Z,0.85
2018-12-25T02:19:10.203Z,0.84
2018-12-25T02:20:09.905Z,0.68
2018-12-25T02:21:09.657Z,0.62
2018-12-25T02:22:09.666Z,0.62
2018-12-25T02:23:09.551Z,0.64
2018-12-25T02:24:09.626Z,0.64
2018-12-25T02:25:09.613Z,0.65
2018-12-25T02:26:09.592Z,0.65
2018-12-25T02:27:10.019Z,0.65
2018-12-25T02:28:09.705Z,0.65
2018-12-25T02:29:09.931Z,0.64
2018-12-25T02:30:09.977Z,0.64
2018-12-25T02:31:09.606Z,0.63
2018-12-25T02:32:09.783Z,0.65
2018-12-25T02:33:09.769Z,0.63
2018-12-25T02:34:10.300Z,0.66
2018-12-25T02:35:09.771Z,0.57
2018-12-25T02:36:09.572Z,0.48
2018-12-25T02:37:10.009Z,0.45
2018-12-25T02:38:09.551Z,0.46
2018-12-25T02:39:09.778Z,0.44
2018-12-25T02:40:09.531Z,0.44
2018-12-25T02:41:09.453Z,0.42
2018-12-25T02:42:09.571Z,0.41
2018-12-25T02:43:09.951Z,0.41
2018-12-25T02:44:09.822Z,0.41
2018-12-25T02:45:09.568Z,0.38
2018-12-25T02:46:10.031Z,0.37
2018-12-25T02:47:09.779Z,0.38
2018-12-25T02:48:09.582Z,0.39
2018-12-25T02:49:09.634Z,0.37
2018-12-25T02:50:09.879Z,0.36
2018-12-25T02:51:10.029Z,0.36
2018-12-25T02:52:09.441Z,0.36
2018-12-25T02:53:09.770Z,0.36
2018-12-25T02:54:09.613Z,0.33
2018-12-25T02:55:09.600Z,0.28
2018-12-25T02:56:09.757Z,0.28
2018-12-25T02:57:09.859Z,0.28
2018-12-25T02:58:09.516Z,0.26
2018-12-25T02:59:09.551Z,0.22
2018-12-25T03:00:10.523Z,0.24
2018-12-25T03:01:09.742Z,0.21
2018-12-25T03:02:10.060Z,0.2
2018-12-25T03:03:09.477Z,0.21
2018-12-25T03:04:09.645Z,0.2
2018-12-25T03:05:09.448Z,0.18
2018-12-25T03:06:09.707Z,0.2
2018-12-25T03:07:09.784Z,0.17
2018-12-25T03:08:09.495Z,0.16
2018-12-25T03:09:09.543Z,0.13
2018-12-25T03:10:09.751Z,0.14
2018-12-25T03:11:09.437Z,0.12
2018-12-25T03:12:09.460Z,0.13
2018-12-25T03:13:09.482Z,0.13
2018-12-25T03:14:09.834Z,0.16
2018-12-25T03:15:09.481Z,0.16
2018-12-25T03:16:09.677Z,0.15
2018-12-25T03:17:09.441Z,0.12
2018-12-25T03:18:09.567Z,0.12
2018-12-25T03:19:09.734Z,0.12
2018-12-25T03:20:09.496Z,0.12
2018-12-25T03:21:09.421Z,0.14
2018-12-25T03:22:09.462Z,0.15
2018-12-25T03:23:09.701Z,0.12
2018-12-25T03:24:09.504Z,0.1
2018-12-25T03:25:10.502Z,0.1
2018-12-25T03:26:09.399Z,0.1
2018-12-25T03:27:09.445Z,0.08
2018-12-25T03:28:09.405Z,0.09
2018-12-25T03:29:09.390Z,0.07
2018-12-25T03:30:09.514Z,0.08
2018-12-25T03:31:09.499Z,0.05
2018-12-25T03:32:09.550Z,0.04
2018-12-25T03:33:09.514Z,-0.03
2018-12-25T03:34:09.424Z,-0.04
2018-12-25T03:35:09.524Z,-0.05
2018-12-25T03:36:09.391Z,-0.07
2018-12-25T03:37:09.432Z,-0.14
2018-12-25T03:38:09.336Z,-0.22
2018-12-25T03:39:09.399Z,-0.24
2018-12-25T03:40:09.433Z,-0.28
2018-12-25T03:41:09.821Z,-0.3
2018-12-25T03:42:10.726Z,-0.37
2018-12-25T03:43:09.726Z,-0.37
2018-12-25T03:44:09.653Z,-0.35
2018-12-25T03:45:09.677Z,-0.35
2018-12-25T03:46:09.670Z,-0.34
2018-12-25T03:47:09.828Z,-0.33
2018-12-25T03:48:09.762Z,-0.33
2018-12-25T03:49:09.854Z,-0.3
2018-12-25T03:50:11.714Z,-0.27
2018-12-25T03:51:09.602Z,-0.27
2018-12-25T03:52:09.360Z,-0.27
2018-12-25T03:53:09.973Z,-0.27
2018-12-25T03:54:09.873Z,-0.27
2018-12-25T03:55:09.370Z,-0.27
2018-12-25T03:56:09.561Z,-0.25
2018-12-25T03:57:09.490Z,-0.26
2018-12-25T03:58:09.530Z,-0.24
2018-12-25T03:59:09.375Z,-0.24
2018-12-25T04:00:09.358Z,-0.22
2018-12-25T04:01:09.391Z,-0.17
2018-12-25T04:02:09.742Z,-0.16
2018-12-25T04:03:09.754Z,-0.15
2018-12-25T04:04:09.372Z,-0.13
2018-12-25T04:05:09.370Z,-0.16
2018-12-25T04:06:09.935Z,-0.17
2018-12-25T04:07:09.813Z,-0.17
2018-12-25T04:08:09.574Z,-0.16
2018-12-25T04:09:09.427Z,-0.15
2018-12-25T04:10:09.722Z,-0.13
2018-12-25T04:11:09.493Z,-0.14
2018-12-25T04:12:09.427Z,-0.11
2018-12-25T04:13:09.509Z,-0.12
2018-12-25T04:14:10.506Z,-0.11
2018-12-25T04:15:09.473Z,-0.11
2018-12-25T04:16:09.707Z,-0.09
2018-12-25T04:17:09.359Z,-0.09
2018-12-25T04:18:09.679Z,-0.1
2018-12-25T04:19:09.447Z,-0.09
2018-12-25T04:20:09.478Z,-0.07
2018-12-25T04:21:09.564Z,-0.08
2018-12-25T04:22:09.515Z,-0.05
2018-12-25T04:23:09.423Z,-0.07
2018-12-25T04:24:09.745Z,-0.07
2018-12-25T04:25:09.584Z,-0.07
2018-12-25T04:26:09.333Z,-0.08
2018-12-25T04:27:09.305Z,-0.08
2018-12-25T04:28:09.466Z,-0.1
2018-12-25T04:29:09.611Z,-0.09
2018-12-25T04:30:09.485Z,-0.09
2018-12-25T04:31:09.655Z,-0.14
2018-12-25T04:32:09.534Z,-0.17
2018-12-25T04:33:09.282Z,-0.19
2018-12-25T04:34:09.412Z,-0.21
2018-12-25T04:35:09.591Z,-0.24
2018-12-25T04:36:09.671Z,-0.26
2018-12-25T04:37:09.822Z,-0.28
2018-12-25T04:38:10.000Z,-0.28
2018-12-25T04:39:09.496Z,-0.3
2018-12-25T04:40:10.685Z,-0.3
2018-12-25T04:41:09.515Z,-0.33
2018-12-25T04:42:09.409Z,-0.34
2018-12-25T04:43:09.304Z,-0.34
2018-12-25T04:44:09.338Z,-0.35
2018-12-25T04:45:09.458Z,-0.34
2018-12-25T04:46:09.516Z,-0.36
2018-12-25T04:47:09.486Z,-0.38
2018-12-25T04:48:09.564Z,-0.38
2018-12-25T04:49:09.705Z,-0.35
2018-12-25T04:50:10.084Z,-0.34
2018-12-25T04:51:09.481Z,-0.34
2018-12-25T04:52:09.576Z,-0.33
2018-12-25T04:53:09.285Z,-0.34
2018-12-25T04:54:09.559Z,-0.31
2018-12-25T04:55:09.510Z,-0.29
2018-12-25T04:56:09.884Z,-0.3
2018-12-25T04:57:09.350Z,-0.29
2018-12-25T04:58:09.505Z,-0.29
2018-12-25T04:59:09.520Z,-0.3
2018-12-25T05:00:09.355Z,-0.3
2018-12-25T05:01:09.484Z,-0.3
2018-12-25T05:02:09.289Z,-0.27
2018-12-25T05:03:09.279Z,-0.3
2018-12-25T05:04:10.392Z,-0.3
2018-12-25T05:05:09.311Z,-0.34
2018-12-25T05:06:09.485Z,-0.36
2018-12-25T05:07:09.340Z,-0.39
2018-12-25T05:08:10.644Z,-0.4
2018-12-25T05:09:09.291Z,-0.4
2018-12-25T05:10:09.278Z,-0.41
2018-12-25T05:11:09.266Z,-0.42
2018-12-25T05:12:09.377Z,-0.41
2018-12-25T05:13:09.600Z,-0.44
2018-12-25T05:14:09.253Z,-0.41
2018-12-25T05:15:09.309Z,-0.45
2018-12-25T05:16:09.263Z,-0.45
2018-12-25T05:17:09.288Z,-0.45
2018-12-25T05:18:09.471Z,-0.46
2018-12-25T05:19:09.202Z,-0.5
2018-12-25T05:20:09.340Z,-0.51
2018-12-25T05:21:09.368Z,-0.49
2018-12-25T05:22:09.277Z,-0.52
2018-12-25T05:23:09.332Z,-0.52
2018-12-25T05:24:09.565Z,-0.51
2018-12-25T05:25:09.466Z,-0.51
2018-12-25T05:26:09.413Z,-0.51
2018-12-25T05:27:09.856Z,-0.51
2018-12-25T05:28:09.286Z,-0.5
2018-12-25T05:29:09.285Z,-0.5
2018-12-25T05:30:09.373Z,-0.47
2018-12-25T05:31:09.241Z,-0.48
2018-12-25T05:32:09.838Z,-0.48
2018-12-25T05:33:09.183Z,-0.5
2018-12-25T05:34:09.774Z,-0.49
2018-12-25T05:35:09.276Z,-0.51
2018-12-25T05:36:09.639Z,-0.51
2018-12-25T05:37:09.477Z,-0.52
2018-12-25T05:38:09.250Z,-0.53
2018-12-25T05:39:09.404Z,-0.54
2018-12-25T05:40:10.280Z,-0.53
2018-12-25T05:41:09.385Z,-0.52
2018-12-25T05:42:09.731Z,-0.55
2018-12-25T05:43:09.330Z,-0.54
2018-12-25T05:44:09.494Z,-0.56
2018-12-25T05:45:09.315Z,-0.59
2018-12-25T05:46:10.472Z,-0.59
2018-12-25T05:47:09.352Z,-0.62
2018-12-25T05:48:09.395Z,-0.6
2018-12-25T05:49:09.186Z,-0.63
2018-12-25T05:50:09.261Z,-0.63
2018-12-25T05:51:09.311Z,-0.65
2018-12-25T05:52:09.289Z,-0.7
2018-12-25T05:53:09.162Z,-0.72
2018-12-25T05:54:09.361Z,-0.73
2018-12-25T05:55:09.261Z,-0.76
2018-12-25T05:56:09.779Z,-0.78
2018-12-25T05:57:13.220Z,-0.8
2018-12-25T05:58:09.455Z,-0.82
2018-12-25T05:59:09.400Z,-0.84
2018-12-25T06:00:09.463Z,-0.87
2018-12-25T06:01:09.263Z,-0.85
2018-12-25T06:02:09.328Z,-0.85
2018-12-25T06:03:09.540Z,-0.88
2018-12-25T06:04:09.325Z,-0.88
2018-12-25T06:05:09.175Z,-0.89
2018-12-25T06:06:09.168Z,-0.89
2018-12-25T06:07:09.350Z,-0.92
2018-12-25T06:08:09.369Z,-0.89
2018-12-25T06:09:09.312Z,-0.91
2018-12-25T06:10:09.199Z,-0.9
2018-12-25T06:11:09.414Z,-0.89
2018-12-25T06:12:09.397Z,-0.89
2018-12-25T06:13:09.571Z,-0.89
2018-12-25T06:14:09.347Z,-0.88
2018-12-25T06:15:09.233Z,-0.88
2018-12-25T06:16:09.640Z,-0.9
2018-12-25T06:17:09.588Z,-0.92
2018-12-25T06:18:09.550Z,-0.94
2018-12-25T06:19:09.244Z,-0.93
2018-12-25T06:20:09.421Z,-0.94
2018-12-25T06:21:09.463Z,-0.94
2018-12-25T06:22:09.259Z,-0.94
2018-12-25T06:23:09.346Z,-0.95
2018-12-25T06:24:10.023Z,-0.96
2018-12-25T06:25:09.318Z,-0.96
2018-12-25T06:26:09.309Z,-0.97
2018-12-25T06:27:09.374Z,-1.01
2018-12-25T06:28:09.501Z,-1
2018-12-25T06:29:09.316Z,-1.01
2018-12-25T06:30:09.189Z,-1.01
2018-12-25T06:31:09.213Z,-1.03
2018-12-25T06:32:09.989Z,-1.02
2018-12-25T06:33:09.204Z,-1.04
2018-12-25T06:34:09.219Z,-1.02
2018-12-25T06:35:09.326Z,-1.02
2018-12-25T06:36:09.845Z,-1.02
2018-12-25T06:37:09.310Z,-1.02
2018-12-25T06:38:09.553Z,-1
2018-12-25T06:39:09.011Z,-1
2018-12-25T06:40:09.668Z,-0.97
2018-12-25T06:41:09.204Z,-0.97
2018-12-25T06:42:09.344Z,-0.97
2018-12-25T06:43:09.713Z,-0.97
2018-12-25T06:44:09.327Z,-0.96
2018-12-25T06:45:09.191Z,-0.96
2018-12-25T06:46:09.221Z,-0.93
2018-12-25T06:47:09.205Z,-0.92
2018-12-25T06:48:09.177Z,-0.92
2018-12-25T06:49:09.189Z,-0.93
2018-12-25T06:50:09.146Z,-0.92
2018-12-25T06:51:09.243Z,-0.95
2018-12-25T06:52:09.266Z,-0.96
2018-12-25T06:53:09.174Z,-0.97
2018-12-25T06:54:09.224Z,-0.97
2018-12-25T06:55:09.323Z,-0.98
2018-12-25T06:56:09.202Z,-0.98
2018-12-25T06:57:09.261Z,-0.97
2018-12-25T06:58:09.182Z,-0.97
2018-12-25T06:59:09.225Z,-0.96
2018-12-25T07:00:09.555Z,-0.96
2018-12-25T07:01:09.238Z,-0.96
2018-12-25T07:02:09.087Z,-0.93
2018-12-25T07:03:09.406Z,-0.95
2018-12-25T07:04:09.206Z,-0.94
2018-12-25T07:05:09.525Z,-0.96
2018-12-25T07:06:09.186Z,-0.94
2018-12-25T07:07:09.508Z,-0.96
2018-12-25T07:08:09.459Z,-0.93
2018-12-25T07:09:09.137Z,-0.92
2018-12-25T07:10:09.361Z,-0.91
2018-12-25T07:11:09.103Z,-0.91
2018-12-25T07:12:09.182Z,-0.88
2018-12-25T07:13:09.183Z,-0.9
2018-12-25T07:14:09.288Z,-0.89
2018-12-25T07:15:09.850Z,-0.91
2018-12-25T07:16:09.146Z,-0.92
2018-12-25T07:17:09.155Z,-0.95
2018-12-25T07:18:09.565Z,-0.95
2018-12-25T07:19:09.280Z,-1.01
2018-12-25T07:20:09.552Z,-1.04
2018-12-25T07:21:12.766Z,-1.06
2018-12-25T07:22:09.256Z,-1.04
2018-12-25T07:23:09.308Z,-1.07
2018-12-25T07:24:10.034Z,-1.09
2018-12-25T07:25:09.480Z,-1.1
2018-12-25T07:26:09.126Z,-1.1
2018-12-25T07:27:09.305Z,-1.13
2018-12-25T07:28:09.238Z,-1.13
2018-12-25T07:29:09.164Z,-1.14
2018-12-25T07:30:09.475Z,-1.11
2018-12-25T07:31:09.246Z,-1.16
2018-12-25T07:32:09.785Z,-1.17
2018-12-25T07:33:09.107Z,-1.21
2018-12-25T07:34:09.458Z,-1.2
2018-12-25T07:35:09.242Z,-1.2
2018-12-25T07:36:09.830Z,-1.22
2018-12-25T07:37:09.406Z,-1.22
2018-12-25T07:38:09.366Z,-1.22
2018-12-25T07:39:09.257Z,-1.24
2018-12-25T07:40:09.499Z,-1.22
2018-12-25T07:41:09.165Z,-1.21
2018-12-25T07:42:09.194Z,-1.21
2018-12-25T07:43:09.264Z,-1.2
2018-12-25T07:44:09.167Z,-1.2
2018-12-25T07:45:09.174Z,-1.19
2018-12-25T07:46:09.182Z,-1.2
2018-12-25T07:47:11.566Z,-1.2
2018-12-25T07:48:09.181Z,-1.19
2018-12-25T07:49:09.167Z,-1.2
2018-12-25T07:50:09.334Z,-1.21
2018-12-25T07:51:09.178Z,-1.2
2018-12-25T07:52:09.038Z,-1.19
2018-12-25T07:53:09.045Z,-1.18
2018-12-25T07:54:09.106Z,-1.18
2018-12-25T07:55:09.043Z,-1.15
2018-12-25T07:56:09.330Z,-1.14
2018-12-25T07:57:09.013Z,-1.15
2018-12-25T07:58:09.353Z,-1.13
2018-12-25T07:59:09.130Z,-1.11
2018-12-25T08:00:09.170Z,-1.1
2018-12-25T08:01:09.146Z,-1.08
2018-12-25T08:02:09.122Z,-1.04
2018-12-25T08:03:09.193Z,-1.04
2018-12-25T08:04:09.024Z,-1.05
2018-12-25T08:05:09.242Z,-1.04
2018-12-25T08:06:09.211Z,-1.06
2018-12-25T08:07:09.231Z,-1.04
2018-12-25T08:08:09.196Z,-1.03
2018-12-25T08:09:09.166Z,-1.03
2018-12-25T08:10:09.157Z,-1.02
2018-12-25T08:11:09.473Z,-1.03
2018-12-25T08:12:09.239Z,-1.04
2018-12-25T08:13:09.335Z,-1.04
2018-12-25T08:14:09.194Z,-1.04
2018-12-25T08:15:09.007Z,-1.04
2018-12-25T08:16:09.383Z,-1.02
2018-12-25T08:17:09.155Z,-1
2018-12-25T08:18:09.298Z,-1.01
2018-12-25T08:19:09.304Z,-0.97
2018-12-25T08:20:09.311Z,-0.96
2018-12-25T08:21:09.645Z,-0.95
2018-12-25T08:22:09.052Z,-0.96
2018-12-25T08:23:09.044Z,-0.91
2018-12-25T08:24:08.963Z,-0.91
2018-12-25T08:25:08.955Z,-0.89
2018-12-25T08:26:09.181Z,-0.88
2018-12-25T08:27:09.089Z,-0.84
2018-12-25T08:28:08.996Z,-0.82
2018-12-25T08:29:09.259Z,-0.78
2018-12-25T08:30:09.144Z,-0.77
2018-12-25T08:31:09.203Z,-0.73
2018-12-25T08:32:08.986Z,-0.71
2018-12-25T08:33:08.961Z,-0.67
2018-12-25T08:34:08.984Z,-0.66
2018-12-25T08:35:08.990Z,-0.62
2018-12-25T08:36:08.983Z,-0.61
2018-12-25T08:37:09.190Z,-0.58
2018-12-25T08:38:09.127Z,-0.57
2018-12-25T08:39:09.341Z,-0.55
2018-12-25T08:40:09.182Z,-0.56
2018-12-25T08:41:09.214Z,-0.56
2018-12-25T08:42:09.353Z,-0.56
2018-12-25T08:43:08.927Z,-0.55
2018-12-25T08:44:09.002Z,-0.54
2018-12-25T08:45:09.791Z,-0.54
2018-12-25T08:46:08.971Z,-0.54
2018-12-25T08:47:08.955Z,-0.5
2018-12-25T08:48:09.678Z,-0.49
2018-12-25T08:49:09.119Z,-0.47
2018-12-25T08:50:09.212Z,-0.45
2018-12-25T08:51:09.385Z,-0.41
2018-12-25T08:52:09.102Z,-0.38
2018-12-25T08:53:09.290Z,-0.38
2018-12-25T08:54:09.373Z,-0.37
2018-12-25T08:55:09.195Z,-0.34
2018-12-25T08:56:09.286Z,-0.36
2018-12-25T08:57:09.172Z,-0.32
2018-12-25T08:58:08.938Z,-0.32
2018-12-25T08:59:08.930Z,-0.32
2018-12-25T09:00:09.733Z,-0.31
2018-12-25T09:01:09.268Z,-0.29
2018-12-25T09:02:09.006Z,-0.28
2018-12-25T09:03:09.017Z,-0.23
2018-12-25T09:04:08.999Z,-0.22
2018-12-25T09:05:09.367Z,-0.19
2018-12-25T09:06:09.753Z,-0.17
2018-12-25T09:07:09.161Z,-0.14
2018-12-25T09:08:08.955Z,-0.14
2018-12-25T09:09:09.273Z,-0.15
2018-12-25T09:10:08.994Z,-0.15
2018-12-25T09:11:08.901Z,-0.14
2018-12-25T09:12:09.260Z,-0.11
2018-12-25T09:13:09.301Z,-0.12
2018-12-25T09:14:08.988Z,-0.09
2018-12-25T09:15:09.009Z,-0.07
2018-12-25T09:16:09.206Z,-0.07
2018-12-25T09:17:09.445Z,-0.04
2018-12-25T09:18:08.924Z,-0.02
2018-12-25T09:19:09.090Z,0
2018-12-25T09:20:09.317Z,0
2018-12-25T09:21:08.955Z,0.03
2018-12-25T09:22:08.913Z,0.03
2018-12-25T09:23:08.930Z,0.05
2018-12-25T09:24:09.003Z,0.07
2018-12-25T09:25:11.144Z,0.06
2018-12-25T09:26:09.307Z,0.06
2018-12-25T09:27:09.124Z,0.1
2018-12-25T09:28:09.306Z,0.09
2018-12-25T09:29:09.263Z,0.1
2018-12-25T09:30:09.237Z,0.1
2018-12-25T09:31:08.975Z,0.13
2018-12-25T09:32:09.485Z,0.13
2018-12-25T09:33:09.239Z,0.14
2018-12-25T09:34:08.933Z,0.14
2018-12-25T09:35:08.898Z,0.16
2018-12-25T09:36:08.878Z,0.15
2018-12-25T09:37:08.876Z,0.18
2018-12-25T09:38:08.918Z,0.2
2018-12-25T09:39:09.181Z,0.2
2018-12-25T09:40:08.692Z,0.26
2018-12-25T09:41:08.903Z,0.27
2018-12-25T09:42:09.642Z,0.29
2018-12-25T09:43:08.881Z,0.32
2018-12-25T09:44:08.943Z,0.35
2018-12-25T09:45:08.880Z,0.38
2018-12-25T09:46:09.041Z,0.4
2018-12-25T09:47:08.892Z,0.39
2018-12-25T09:48:13.971Z,0.43
2018-12-25T09:49:09.269Z,0.44
2018-12-25T09:50:09.469Z,0.45
2018-12-25T09:51:09.258Z,0.49
2018-12-25T09:52:09.127Z,0.51
2018-12-25T09:53:08.845Z,0.52
2018-12-25T09:54:08.890Z,0.52
2018-12-25T09:55:09.190Z,0.53
2018-12-25T09:57:08.848Z,0.55
2018-12-25T09:58:10.371Z,0.58
2018-12-25T09:59:09.001Z,0.6
2018-12-25T10:00:08.999Z,0.64
2018-12-25T10:01:08.849Z,0.65
2018-12-25T10:02:08.835Z,0.69
2018-12-25T10:03:08.850Z,0.68
2018-12-25T10:04:08.817Z,0.71
2018-12-25T10:05:09.181Z,0.72
2018-12-25T10:06:08.813Z,0.75
2018-12-25T10:07:08.807Z,0.77
2018-12-25T10:08:13.544Z,0.79
2018-12-25T10:09:08.890Z,0.79
2018-12-25T10:10:08.841Z,0.84
2018-12-25T10:11:09.170Z,0.86
2018-12-25T10:12:08.887Z,0.89
2018-12-25T10:13:08.909Z,0.91
2018-12-25T10:14:08.981Z,0.94
2018-12-25T10:15:09.321Z,0.95
2018-12-25T10:16:08.849Z,0.99
2018-12-25T10:17:09.186Z,1.03
2018-12-25T10:18:09.207Z,1.03
2018-12-25T10:19:10.202Z,1.07
2018-12-25T10:20:08.911Z,1.12
2018-12-25T10:21:09.151Z,1.13
2018-12-25T10:22:08.916Z,1.14
2018-12-25T10:23:08.831Z,1.15
2018-12-25T10:24:09.201Z,1.18
2018-12-25T10:25:09.135Z,1.21
2018-12-25T10:26:12.964Z,1.22
2018-12-25T10:27:09.307Z,1.22
2018-12-25T10:28:08.953Z,1.22
2018-12-25T10:29:09.134Z,1.23
2018-12-25T10:30:08.832Z,1.25
2018-12-25T10:31:09.030Z,1.27
2018-12-25T10:32:10.766Z,1.28
2018-12-25T10:33:09.244Z,1.3
2018-12-25T10:34:08.782Z,1.34
2018-12-25T10:35:08.784Z,1.39
2018-12-25T10:36:08.754Z,1.45
2018-12-25T10:37:08.958Z,1.47
2018-12-25T10:38:08.786Z,1.49
2018-12-25T10:39:09.314Z,1.55
2018-12-25T10:40:09.175Z,1.61
2018-12-25T10:41:08.892Z,1.65
2018-12-25T10:42:08.941Z,1.67
2018-12-25T10:43:08.952Z,1.71
2018-12-25T10:44:08.935Z,1.72
2018-12-25T10:45:08.943Z,1.77
2018-12-25T10:46:08.794Z,1.79
2018-12-25T10:47:08.763Z,1.83
2018-12-25T10:48:08.943Z,1.85
2018-12-25T10:49:09.094Z,1.92
2018-12-25T10:50:08.828Z,1.94
2018-12-25T10:51:09.010Z,2.01
2018-12-25T10:52:12.379Z,2.04
2018-12-25T10:53:08.794Z,2.09
2018-12-25T10:54:08.823Z,2.12
2018-12-25T10:55:08.879Z,2.14
2018-12-25T10:56:08.906Z,2.15
2018-12-25T10:57:11.708Z,2.17
2018-12-25T10:58:09.254Z,2.22
2018-12-25T10:59:09.552Z,2.25
2018-12-25T11:00:08.965Z,2.28
2018-12-25T11:01:08.887Z,2.33
2018-12-25T11:02:08.857Z,2.38
2018-12-25T11:03:09.004Z,2.41
2018-12-25T11:04:09.966Z,2.47
2018-12-25T11:06:22.617Z,2.56
2018-12-25T11:07:09.171Z,2.58
2018-12-25T11:08:08.907Z,2.61
2018-12-25T11:09:08.825Z,2.67
2018-12-25T11:10:08.778Z,2.71
2018-12-25T11:11:08.878Z,2.75
2018-12-25T11:12:09.579Z,2.77
2018-12-25T11:13:08.867Z,2.83
2018-12-25T11:14:08.879Z,2.83
2018-12-25T11:15:08.811Z,2.87
2018-12-25T11:16:09.295Z,2.92
2018-12-25T11:17:09.936Z,2.97
2018-12-25T11:18:08.886Z,3.05
2018-12-25T11:19:08.727Z,3.08
2018-12-25T11:20:12.147Z,3.09
2018-12-25T11:21:08.756Z,3.14
2018-12-25T11:22:09.572Z,3.18
2018-12-25T11:23:08.869Z,3.14
2018-12-25T11:24:09.049Z,3.18
2018-12-25T11:25:08.981Z,3.18
2018-12-25T11:26:08.979Z,3.2
2018-12-25T11:27:09.548Z,3.18
2018-12-25T11:28:08.769Z,3.11
2018-12-25T11:29:09.533Z,3.15
2018-12-25T11:30:08.877Z,3.17
2018-12-25T11:31:08.728Z,3.18
2018-12-25T11:32:08.872Z,3.19
2018-12-25T11:33:09.522Z,3.25
2018-12-25T11:34:09.156Z,3.28
2018-12-25T11:35:08.905Z,3.27
2018-12-25T11:36:08.753Z,3.3
2018-12-25T11:37:08.804Z,3.31
2018-12-25T11:38:08.766Z,3.3
2018-12-25T11:39:08.735Z,3.31
2018-12-25T11:40:08.959Z,3.34
2018-12-25T11:41:08.975Z,3.37
2018-12-25T11:42:08.740Z,3.4
2018-12-25T11:43:08.667Z,3.45
2018-12-25T11:44:08.730Z,3.49
2018-12-25T11:45:08.857Z,3.53
2018-12-25T11:46:08.757Z,3.55
2018-12-25T11:47:08.885Z,3.55
2018-12-25T11:48:08.730Z,3.54
2018-12-25T11:49:08.779Z,3.55
2018-12-25T11:50:08.766Z,3.55
2018-12-25T11:51:08.774Z,3.56
2018-12-25T11:52:08.694Z,3.56
2018-12-25T11:53:08.669Z,3.59
2018-12-25T11:54:08.691Z,3.6
2018-12-25T11:55:08.768Z,3.61
2018-12-25T11:56:08.649Z,3.66
2018-12-25T11:57:08.762Z,3.67
2018-12-25T11:58:08.879Z,3.68
2018-12-25T11:59:08.727Z,3.72
2018-12-25T12:00:08.867Z,3.73
2018-12-25T12:01:08.794Z,3.74
2018-12-25T12:02:17.616Z,3.73
2018-12-25T12:03:09.731Z,3.72
2018-12-25T12:04:17.309Z,3.55
2018-12-25T12:05:11.691Z,3.64
2018-12-25T12:06:10.340Z,3.69
2018-12-25T12:07:11.717Z,3.7
2018-12-25T12:08:08.963Z,3.69
2018-12-25T12:09:09.722Z,3.74
2018-12-25T12:10:12.001Z,3.74
2018-12-25T12:11:12.204Z,3.74
2018-12-25T12:12:08.648Z,3.78
2018-12-25T12:13:08.789Z,3.82
2018-12-25T12:14:08.637Z,3.87
2018-12-25T12:15:08.829Z,3.88
2018-12-25T12:16:08.640Z,3.93
2018-12-25T12:17:08.611Z,3.92
2018-12-25T12:18:08.824Z,3.95
2018-12-25T12:19:08.813Z,3.93
2018-12-25T12:20:08.986Z,3.99
2018-12-25T12:21:09.007Z,4.01
2018-12-25T12:22:09.153Z,4.03
2018-12-25T12:23:09.467Z,4.06
2018-12-25T12:24:08.865Z,4.04
2018-12-25T12:25:08.882Z,4.05
2018-12-25T12:26:08.843Z,4.02
2018-12-25T12:27:09.159Z,4.04
2018-12-25T12:28:08.854Z,4.02
2018-12-25T12:29:08.690Z,4.01
2018-12-25T12:30:09.078Z,3.94
2018-12-25T12:31:08.771Z,3.92
2018-12-25T12:32:09.759Z,3.93
2018-12-25T12:33:12.169Z,3.98
2018-12-25T12:34:14.761Z,3.95
2018-12-25T12:35:10.412Z,3.99
2018-12-25T12:36:16.210Z,3.97
2018-12-25T12:39:11.478Z,3.74
2018-12-25T12:40:09.605Z,3.76
2018-12-25T12:41:11.709Z,3.83
2018-12-25T12:42:09.561Z,3.87
2018-12-25T12:44:08.838Z,3.92
2018-12-25T12:45:10.634Z,3.91
2018-12-25T12:46:10.139Z,3.89
2018-12-25T12:47:18.039Z,3.89
2018-12-25T12:48:13.833Z,3.86
2018-12-25T12:49:33.826Z,3.89
2018-12-25T12:50:11.684Z,3.93
2018-12-25T12:51:12.450Z,3.96
2018-12-25T12:52:09.423Z,3.96
2018-12-25T12:53:11.270Z,4.01
2018-12-25T12:54:10.888Z,4.04
2018-12-25T12:55:16.117Z,4.07
2018-12-25T12:56:23.424Z,4.09
2018-12-25T12:57:15.360Z,4.13
2018-12-25T12:58:15.118Z,4.15
2018-12-25T12:59:16.610Z,4.17
2018-12-25T13:00:17.615Z,4.2
2018-12-25T13:01:15.958Z,4.19
2018-12-25T13:02:14.711Z,4.21
2018-12-25T13:03:10.981Z,4.23
2018-12-25T13:04:08.824Z,4.27
2018-12-25T13:05:08.693Z,4.31
2018-12-25T13:06:08.716Z,4.31
2018-12-25T13:07:08.934Z,4.29
2018-12-25T13:08:08.706Z,4.2
2018-12-25T13:09:09.052Z,4.15
2018-12-25T13:10:10.011Z,4.23
2018-12-25T13:11:08.909Z,4.25
2018-12-25T13:12:08.630Z,4.27
2018-12-25T13:13:08.678Z,4.34
2018-12-25T13:14:09.075Z,4.31
2018-12-25T13:15:08.872Z,4.2